createdAt,value
2019-05-25T00:00:12.161Z,1.90
2019-05-25T00:02:41.558Z,1.92
2019-05-25T00:05:11.345Z,1.75
2019-05-25T00:07:40.722Z,1.87
2019-05-25T00:10:10.068Z,1.53
2019-05-25T00:12:39.465Z,2.10
2019-05-25T00:15:08.847Z,2.10
2019-05-25T00:17:38.437Z,1.50
2019-05-25T00:20:07.838Z,2.00
2019-05-25T00:22:37.242Z,2.05
2019-05-25T00:25:07.275Z,1.50
2019-05-25T00:27:36.642Z,1.70
2019-05-25T00:30:06.049Z,1.52
2019-05-25T00:32:37.694Z,1.95
2019-05-25T00:35:07.287Z,1.90
2019-05-25T00:37:36.673Z,1.70
2019-05-25T00:40:06.540Z,1.92
2019-05-25T00:42:35.912Z,1.82
2019-05-25T00:45:06.330Z,2.00
2019-05-25T00:47:35.675Z,1.83
2019-05-25T00:50:06.086Z,1.60
2019-05-25T00:52:35.502Z,1.67
2019-05-25T00:55:05.447Z,2.00
2019-05-25T00:57:34.762Z,1.82
2019-05-25T01:00:04.707Z,1.82
2019-05-25T01:02:34.248Z,1.50
2019-05-25T01:05:03.671Z,1.55
2019-05-25T01:07:33.062Z,2.05
2019-05-25T01:10:02.613Z,1.60
2019-05-25T01:12:31.947Z,1.77
2019-05-25T01:15:01.329Z,2.00
2019-05-25T01:17:30.646Z,1.90
2019-05-25T01:19:59.943Z,1.80
2019-05-25T01:22:29.313Z,1.30
2019-05-25T01:24:58.710Z,1.70
2019-05-25T01:27:28.091Z,1.67
2019-05-25T01:29:57.374Z,1.53
2019-05-25T01:32:26.804Z,2.17
2019-05-25T01:34:56.303Z,2.15
2019-05-25T01:37:25.710Z,1.80
2019-05-25T01:39:55.168Z,1.85
2019-05-25T01:42:24.462Z,1.67
2019-05-25T01:44:53.883Z,1.50
2019-05-25T01:47:23.262Z,1.67
2019-05-25T01:49:52.632Z,1.70
2019-05-25T01:52:21.922Z,2.20
2019-05-25T01:54:59.486Z,1.53
2019-05-25T01:57:22.343Z,1.87
2019-05-25T01:59:52.540Z,1.63
2019-05-25T02:02:21.932Z,1.67
2019-05-25T02:04:51.403Z,1.60
2019-05-25T02:07:20.798Z,1.73
2019-05-25T02:09:50.223Z,1.47
2019-05-25T02:12:19.644Z,2.00
2019-05-25T02:14:49.081Z,1.77
2019-05-25T02:17:18.441Z,1.90
2019-05-25T02:19:47.795Z,1.73
2019-05-25T02:22:17.142Z,1.90
2019-05-25T02:24:46.527Z,2.00
2019-05-25T02:27:15.940Z,2.30
2019-05-25T02:29:45.338Z,1.70
2019-05-25T02:32:14.734Z,2.43
2019-05-25T02:34:44.001Z,2.00
2019-05-25T02:37:13.404Z,1.47
2019-05-25T02:39:42.768Z,2.20
2019-05-25T02:42:12.118Z,2.00
2019-05-25T02:44:41.477Z,2.00
2019-05-25T02:47:10.769Z,2.13
2019-05-25T02:49:40.182Z,1.80
2019-05-25T02:52:09.531Z,2.10
2019-05-25T02:54:38.928Z,1.60
2019-05-25T02:57:08.302Z,2.17
2019-05-25T02:59:37.709Z,1.80
2019-05-25T03:02:09.876Z,1.93
2019-05-25T03:04:39.270Z,2.30
2019-05-25T03:07:09.534Z,1.80
2019-05-25T03:09:40.868Z,2.10
2019-05-25T03:12:10.565Z,1.93
2019-05-25T03:14:40.142Z,1.90
2019-05-25T03:17:09.473Z,1.50
2019-05-25T03:19:38.870Z,2.40
2019-05-25T03:22:08.252Z,1.90
2019-05-25T03:24:37.625Z,1.90
2019-05-25T03:27:06.913Z,2.30
2019-05-25T03:29:36.739Z,1.80
2019-05-25T03:32:06.102Z,2.00
2019-05-25T03:34:35.464Z,2.27
2019-05-25T03:37:04.806Z,1.80
2019-05-25T03:39:34.169Z,1.80
2019-05-25T03:42:03.541Z,2.07
2019-05-25T03:44:32.955Z,1.80
2019-05-25T03:47:02.345Z,1.90
2019-05-25T03:49:31.716Z,2.10
2019-05-25T03:52:01.076Z,2.03
2019-05-25T03:54:30.400Z,1.73
2019-05-25T03:56:59.768Z,1.93
2019-05-25T03:59:29.148Z,2.07
2019-05-25T04:01:58.553Z,2.10
2019-05-25T04:04:27.963Z,1.60
2019-05-25T04:06:57.356Z,2.40
2019-05-25T04:09:26.684Z,1.97
2019-05-25T04:11:56.150Z,2.30
2019-05-25T04:14:27.581Z,2.00
2019-05-25T04:16:56.895Z,2.87
2019-05-25T04:19:26.269Z,2.13
2019-05-25T04:21:55.667Z,2.10
2019-05-25T04:24:24.988Z,3.20
2019-05-25T04:26:54.369Z,2.30
2019-05-25T04:29:23.694Z,2.73
2019-05-25T04:31:53.094Z,3.93
2019-05-25T04:34:25.590Z,3.43
2019-05-25T04:36:55.036Z,4.13
2019-05-25T04:39:24.399Z,3.70
2019-05-25T04:41:53.772Z,3.97
2019-05-25T04:44:23.075Z,5.53
2019-05-25T04:46:52.472Z,4.43
2019-05-25T04:49:21.818Z,5.30
2019-05-25T04:51:51.216Z,4.43
2019-05-25T04:54:20.589Z,4.90
2019-05-25T04:56:50.327Z,4.70
2019-05-25T04:59:19.700Z,5.63
2019-05-25T05:01:49.034Z,4.40
2019-05-25T05:04:18.435Z,3.30
2019-05-25T05:06:47.807Z,3.97
2019-05-25T05:09:17.159Z,4.13
2019-05-25T05:11:46.424Z,3.97
2019-05-25T05:14:15.748Z,4.40
2019-05-25T05:16:45.204Z,3.60
2019-05-25T05:19:14.578Z,4.00
2019-05-25T05:21:43.980Z,4.17
2019-05-25T05:24:13.406Z,4.50
2019-05-25T05:26:55.381Z,3.07
2019-05-25T05:29:13.862Z,4.07
2019-05-25T05:31:43.443Z,3.43
2019-05-25T05:34:15.867Z,4.13
2019-05-25T05:36:46.265Z,3.03
2019-05-25T05:39:15.708Z,4.27
2019-05-25T05:41:48.040Z,4.30
2019-05-25T05:44:19.584Z,5.00
2019-05-25T05:46:50.260Z,7.57
2019-05-25T05:49:20.965Z,6.07
2019-05-25T05:51:52.762Z,5.90
2019-05-25T05:54:22.206Z,7.23
2019-05-25T05:57:12.680Z,6.85
2019-05-25T05:59:41.721Z,5.43
2019-05-25T06:02:11.096Z,7.00
2019-05-25T06:04:40.482Z,5.67
2019-05-25T06:07:12.864Z,5.60
2019-05-25T06:09:43.206Z,6.80
2019-05-25T06:12:12.613Z,6.50
2019-05-25T06:14:41.991Z,7.17
2019-05-25T06:17:11.280Z,7.13
2019-05-25T06:19:40.650Z,6.10
2019-05-25T06:22:10.069Z,7.00
2019-05-25T06:24:39.357Z,6.20
2019-05-25T06:27:08.782Z,7.03
2019-05-25T06:29:38.086Z,5.23
2019-05-25T06:32:07.482Z,5.90
2019-05-25T06:34:37.009Z,5.27
2019-05-25T06:37:06.362Z,5.00
2019-05-25T06:39:35.769Z,4.47
2019-05-25T06:42:05.468Z,4.75
2019-05-25T06:44:34.820Z,4.23
2019-05-25T06:47:04.328Z,4.83
2019-05-25T06:49:33.767Z,3.90
2019-05-25T06:52:03.134Z,3.45
2019-05-25T06:54:33.936Z,3.35
2019-05-25T06:57:03.591Z,3.58
2019-05-25T06:59:33.078Z,3.07
2019-05-25T07:02:02.484Z,3.75
2019-05-25T07:04:31.862Z,3.27
2019-05-25T07:07:01.179Z,2.83
2019-05-25T07:09:30.519Z,2.60
2019-05-25T07:12:02.697Z,2.83
2019-05-25T07:14:32.038Z,2.77
2019-05-25T07:17:01.396Z,3.10
2019-05-25T07:19:30.830Z,3.10
2019-05-25T07:22:00.104Z,3.15
2019-05-25T07:24:29.454Z,2.77
2019-05-25T07:26:58.797Z,2.80
2019-05-25T07:29:28.216Z,2.72
2019-05-25T07:31:57.519Z,2.65
2019-05-25T07:34:26.928Z,2.63
2019-05-25T07:36:56.285Z,3.00
2019-05-25T07:39:25.672Z,3.05
2019-05-25T07:41:55.047Z,3.10
2019-05-25T07:44:24.436Z,2.40
2019-05-25T07:46:53.759Z,2.22
2019-05-25T07:49:23.167Z,3.00
2019-05-25T07:51:52.493Z,2.77
2019-05-25T07:54:21.838Z,2.80
2019-05-25T07:56:51.351Z,3.15
2019-05-25T07:59:20.747Z,3.02
2019-05-25T08:01:50.035Z,2.67
2019-05-25T08:04:19.452Z,2.80
2019-05-25T08:06:48.771Z,3.00
2019-05-25T08:09:18.143Z,2.55
2019-05-25T08:11:47.559Z,2.27
2019-05-25T08:14:16.935Z,3.35
2019-05-25T08:16:46.351Z,2.75
2019-05-25T08:19:15.696Z,2.72
2019-05-25T08:21:44.996Z,3.45
2019-05-25T08:24:14.379Z,3.22
2019-05-25T08:26:43.732Z,4.05
2019-05-25T08:29:13.050Z,3.25
2019-05-25T08:31:42.442Z,2.67
2019-05-25T08:34:11.838Z,2.62
2019-05-25T08:36:41.247Z,2.83
2019-05-25T08:39:10.587Z,2.95
2019-05-25T08:41:40.032Z,3.02
2019-05-25T08:44:09.412Z,4.00
2019-05-25T08:46:38.838Z,3.83
2019-05-25T08:49:08.215Z,3.05
2019-05-25T08:51:37.616Z,3.22
2019-05-25T08:54:07.027Z,2.85
2019-05-25T08:56:36.452Z,2.75
2019-05-25T08:59:05.863Z,2.50
2019-05-25T09:01:35.272Z,2.33
2019-05-25T09:04:04.581Z,2.27
2019-05-25T09:06:33.965Z,1.98
2019-05-25T09:09:03.685Z,2.12
2019-05-25T09:11:33.010Z,1.90
2019-05-25T09:14:02.401Z,2.00
2019-05-25T09:16:31.820Z,2.75
2019-05-25T09:19:01.199Z,2.80
2019-05-25T09:21:30.653Z,2.50
2019-05-25T09:24:00.008Z,2.45
2019-05-25T09:26:29.430Z,2.00
2019-05-25T09:29:04.611Z,2.58
2019-05-25T09:31:30.000Z,2.33
2019-05-25T09:33:59.386Z,2.55
2019-05-25T09:36:28.747Z,1.98
2019-05-25T09:38:59.508Z,2.20
2019-05-25T09:41:28.831Z,1.90
2019-05-25T09:43:58.198Z,2.67
2019-05-25T09:46:27.800Z,1.50
2019-05-25T09:48:57.541Z,1.55
2019-05-25T09:51:26.895Z,1.87
2019-05-25T09:53:56.295Z,1.72
2019-05-25T09:56:28.778Z,1.50
2019-05-25T09:58:58.187Z,1.70
2019-05-25T10:01:27.541Z,1.82
2019-05-25T10:03:56.937Z,1.40
2019-05-25T10:06:26.292Z,1.67
2019-05-25T10:08:55.647Z,1.40
2019-05-25T10:11:25.157Z,1.57
2019-05-25T10:13:54.922Z,1.70
2019-05-25T10:16:24.315Z,1.50
2019-05-25T10:18:53.693Z,1.15
2019-05-25T10:21:23.068Z,1.35
2019-05-25T10:23:52.401Z,1.30
2019-05-25T10:26:23.096Z,1.10
2019-05-25T10:28:53.807Z,0.82
2019-05-25T10:31:23.122Z,0.88
2019-05-25T10:33:52.448Z,0.70
2019-05-25T10:36:21.816Z,0.75
2019-05-25T10:38:51.226Z,0.70
2019-05-25T10:41:20.611Z,0.80
2019-05-25T10:43:49.962Z,0.75
2019-05-25T10:46:19.268Z,1.00
2019-05-25T10:48:48.643Z,0.82
2019-05-25T10:51:17.988Z,1.50
2019-05-25T10:53:47.358Z,1.40
2019-05-25T10:56:16.729Z,1.12
2019-05-25T10:58:46.113Z,1.55
2019-05-25T11:01:15.501Z,1.37
2019-05-25T11:03:46.859Z,1.20
2019-05-25T11:06:16.126Z,1.30
2019-05-25T11:08:45.504Z,1.10
2019-05-25T11:11:14.910Z,1.30
2019-05-25T11:13:47.329Z,0.90
2019-05-25T11:16:16.732Z,1.00
2019-05-25T11:18:46.051Z,1.05
2019-05-25T11:21:15.463Z,1.12
2019-05-25T11:23:44.871Z,1.20
2019-05-25T11:26:14.228Z,1.00
2019-05-25T11:28:43.633Z,1.10
2019-05-25T11:31:13.037Z,0.80
2019-05-25T11:33:42.367Z,0.88
2019-05-25T11:36:11.702Z,0.85
2019-05-25T11:38:41.112Z,0.90
2019-05-25T11:41:10.483Z,1.10
2019-05-25T11:43:39.854Z,0.80
2019-05-25T11:46:09.200Z,0.90
2019-05-25T11:48:38.510Z,0.90
2019-05-25T11:51:07.944Z,0.90
2019-05-25T11:53:37.342Z,0.90
2019-05-25T11:56:06.784Z,1.00
2019-05-25T11:58:47.079Z,1.22
2019-05-25T12:01:07.181Z,0.80
2019-05-25T12:03:36.556Z,1.10
2019-05-25T12:06:05.981Z,1.05
2019-05-25T12:08:35.342Z,1.65
2019-05-25T12:11:04.636Z,1.10
2019-05-25T12:13:34.043Z,1.30
2019-05-25T12:16:06.523Z,1.70
2019-05-25T12:18:35.795Z,1.55
2019-05-25T12:21:05.262Z,1.45
2019-05-25T12:23:34.645Z,1.80
2019-05-25T12:26:06.421Z,1.67
2019-05-25T12:28:35.818Z,1.42
2019-05-25T12:31:05.121Z,1.50
2019-05-25T12:33:34.502Z,1.42
2019-05-25T12:36:03.921Z,1.50
2019-05-25T12:38:33.345Z,1.10
2019-05-25T12:41:02.783Z,1.12
2019-05-25T12:43:32.071Z,1.07
2019-05-25T12:46:01.463Z,1.50
2019-05-25T12:48:30.851Z,1.60
2019-05-25T12:51:00.198Z,1.32
2019-05-25T12:53:29.571Z,1.30
2019-05-25T12:55:58.981Z,1.32
2019-05-25T12:58:28.377Z,1.15
2019-05-25T13:00:57.667Z,1.47
2019-05-25T13:03:28.429Z,1.80
2019-05-25T13:05:58.057Z,1.82
2019-05-25T13:08:27.481Z,1.30
2019-05-25T13:10:56.869Z,1.65
2019-05-25T13:13:26.262Z,1.40
2019-05-25T13:15:55.658Z,1.25
2019-05-25T13:18:24.984Z,1.52
2019-05-25T13:20:54.334Z,1.50
2019-05-25T13:23:23.718Z,1.57
2019-05-25T13:25:53.104Z,1.90
2019-05-25T13:28:23.368Z,1.87
2019-05-25T13:30:52.880Z,1.62
2019-05-25T13:33:22.156Z,1.67
2019-05-25T13:35:51.612Z,1.30
2019-05-25T13:38:20.968Z,1.70
2019-05-25T13:40:50.462Z,1.65
2019-05-25T13:43:19.846Z,1.52
2019-05-25T13:45:49.250Z,1.70
2019-05-25T13:48:18.579Z,2.10
2019-05-25T13:50:47.929Z,2.30
2019-05-25T13:53:17.250Z,1.72
2019-05-25T13:55:49.867Z,1.95
2019-05-25T13:58:19.228Z,2.30
2019-05-25T14:00:48.615Z,1.70
2019-05-25T14:03:18.126Z,1.98
2019-05-25T14:05:47.531Z,1.72
2019-05-25T14:08:16.864Z,1.60
2019-05-25T14:10:46.255Z,1.42
2019-05-25T14:13:15.622Z,1.65
2019-05-25T14:15:44.985Z,1.62
2019-05-25T14:18:14.349Z,1.35
2019-05-25T14:20:43.659Z,1.52
2019-05-25T14:23:12.987Z,1.30
2019-05-25T14:25:42.310Z,1.30
2019-05-25T14:28:12.181Z,1.60
2019-05-25T14:30:41.506Z,1.40
2019-05-25T14:33:10.893Z,1.50
2019-05-25T14:35:40.356Z,1.70
2019-05-25T14:38:09.674Z,1.30
2019-05-25T14:40:38.978Z,1.70
2019-05-25T14:43:08.325Z,1.57
2019-05-25T14:45:37.746Z,1.57
2019-05-25T14:48:07.240Z,1.35
2019-05-25T14:50:36.630Z,1.55
2019-05-25T14:53:06.173Z,1.65
2019-05-25T14:55:35.543Z,1.40
2019-05-25T14:58:04.892Z,1.52
2019-05-25T15:00:34.285Z,1.50
2019-05-25T15:03:03.756Z,1.57
2019-05-25T15:05:33.056Z,1.40
2019-05-25T15:08:02.455Z,1.67
2019-05-25T15:10:31.737Z,1.60
2019-05-25T15:13:01.132Z,1.30
2019-05-25T15:15:30.478Z,1.15
2019-05-25T15:18:02.639Z,1.70
2019-05-25T15:20:32.032Z,1.40
2019-05-25T15:23:03.509Z,1.37
2019-05-25T15:25:32.929Z,1.70
2019-05-25T15:28:02.291Z,1.40
2019-05-25T15:30:31.667Z,1.70
2019-05-25T15:33:02.469Z,1.50
2019-05-25T15:35:31.769Z,1.40
2019-05-25T15:38:01.087Z,1.52
2019-05-25T15:40:30.496Z,1.70
2019-05-25T15:42:59.864Z,1.62
2019-05-25T15:45:29.209Z,1.35
2019-05-25T15:48:00.880Z,1.50
2019-05-25T15:50:30.360Z,1.75
2019-05-25T15:52:59.775Z,1.50
2019-05-25T15:55:29.164Z,1.70
2019-05-25T15:57:58.451Z,1.45
2019-05-25T16:00:47.939Z,1.42
2019-05-25T16:03:18.479Z,1.17
2019-05-25T16:05:48.279Z,1.60
2019-05-25T16:08:19.095Z,1.67
2019-05-25T16:10:48.833Z,1.40
2019-05-25T16:13:18.331Z,2.02
2019-05-25T16:15:47.729Z,1.55
2019-05-25T16:18:17.100Z,1.42
2019-05-25T16:20:46.464Z,1.30
2019-05-25T16:23:15.827Z,1.10
2019-05-25T16:25:45.172Z,1.42
2019-05-25T16:28:14.492Z,1.40
2019-05-25T16:30:43.911Z,2.17
2019-05-25T16:33:14.537Z,1.30
2019-05-25T16:35:44.273Z,1.50
2019-05-25T16:38:13.562Z,1.77
2019-05-25T16:40:43.151Z,2.00
2019-05-25T16:43:12.581Z,1.85
2019-05-25T16:45:42.379Z,1.75
2019-05-25T16:48:11.728Z,1.57
2019-05-25T16:50:41.438Z,2.47
2019-05-25T16:53:11.795Z,1.60
2019-05-25T16:55:41.211Z,1.60
2019-05-25T16:58:10.623Z,1.80
2019-05-25T17:00:40.020Z,1.35
2019-05-25T17:03:09.373Z,1.52
2019-05-25T17:05:38.751Z,1.52
2019-05-25T17:08:08.072Z,1.40
2019-05-25T17:10:38.212Z,1.40
2019-05-25T17:13:07.569Z,1.40
2019-05-25T17:15:36.941Z,1.37
2019-05-25T17:18:06.282Z,1.35
2019-05-25T17:20:35.685Z,1.55
2019-05-25T17:23:05.156Z,1.52
2019-05-25T17:25:37.542Z,1.17
2019-05-25T17:28:06.919Z,1.55
2019-05-25T17:30:39.440Z,1.65
2019-05-25T17:33:09.186Z,1.50
2019-05-25T17:35:38.535Z,1.30
2019-05-25T17:38:08.207Z,1.60
2019-05-25T17:40:37.929Z,1.40
2019-05-25T17:43:07.325Z,1.20
2019-05-25T17:45:36.688Z,1.42
2019-05-25T17:48:06.014Z,1.30
2019-05-25T17:50:35.371Z,1.40
2019-05-25T17:53:04.825Z,1.50
2019-05-25T17:55:34.209Z,1.27
2019-05-25T17:58:03.572Z,1.50
2019-05-25T18:00:45.547Z,1.32
2019-05-25T18:03:15.038Z,1.40
2019-05-25T18:05:44.462Z,1.50
2019-05-25T18:08:13.855Z,1.45
2019-05-25T18:10:52.681Z,1.60
2019-05-25T18:13:14.359Z,1.77
2019-05-25T18:15:43.763Z,1.20
2019-05-25T18:18:13.235Z,1.40
2019-05-25T18:20:42.624Z,1.60
2019-05-25T18:23:11.930Z,1.60
2019-05-25T18:25:41.295Z,1.25
2019-05-25T18:28:10.673Z,1.65
2019-05-25T18:30:41.193Z,1.30
2019-05-25T18:33:10.480Z,1.42
2019-05-25T18:35:42.893Z,1.35
2019-05-25T18:38:12.306Z,1.30
2019-05-25T18:40:41.646Z,1.65
2019-05-25T18:43:11.048Z,1.40
2019-05-25T18:45:40.351Z,1.75
2019-05-25T18:48:09.753Z,1.80
2019-05-25T18:50:39.363Z,1.52
2019-05-25T18:53:08.959Z,1.60
2019-05-25T18:55:38.331Z,1.45
2019-05-25T18:58:07.906Z,1.42
2019-05-25T19:00:37.421Z,1.40
2019-05-25T19:03:06.934Z,1.72
2019-05-25T19:05:36.481Z,1.42
2019-05-25T19:08:05.991Z,1.60
2019-05-25T19:10:35.551Z,1.92
2019-05-25T19:13:04.907Z,2.05
2019-05-25T19:15:34.311Z,1.40
2019-05-25T19:18:03.710Z,1.67
2019-05-25T19:20:33.064Z,1.50
2019-05-25T19:23:02.481Z,1.80
2019-05-25T19:25:31.887Z,1.45
2019-05-25T19:28:01.305Z,1.70
2019-05-25T19:30:30.732Z,1.75
2019-05-25T19:33:00.112Z,1.40
2019-05-25T19:35:29.524Z,1.60
2019-05-25T19:37:58.864Z,1.47
2019-05-25T19:40:28.212Z,1.80
2019-05-25T19:42:57.965Z,1.75
2019-05-25T19:45:27.271Z,1.50
2019-05-25T19:47:56.718Z,1.70
2019-05-25T19:50:26.163Z,1.80
2019-05-25T19:52:55.581Z,1.55
2019-05-25T19:55:25.785Z,1.40
2019-05-25T19:57:55.264Z,1.62
2019-05-25T20:00:25.580Z,1.42
2019-05-25T20:02:54.945Z,1.92
2019-05-25T20:05:24.350Z,1.50
2019-05-25T20:07:54.963Z,1.52
2019-05-25T20:10:24.405Z,1.60
2019-05-25T20:12:53.816Z,1.32
2019-05-25T20:15:23.226Z,1.57
2019-05-25T20:17:53.466Z,1.92
2019-05-25T20:20:22.903Z,1.47
2019-05-25T20:22:52.259Z,2.25
2019-05-25T20:25:21.704Z,1.70
2019-05-25T20:27:51.096Z,1.32
2019-05-25T20:30:20.564Z,1.30
2019-05-25T20:32:52.991Z,1.92
2019-05-25T20:35:32.477Z,1.47
2019-05-25T20:37:53.543Z,1.47
2019-05-25T20:40:23.089Z,1.40
2019-05-25T20:42:52.485Z,1.70
2019-05-25T20:45:22.698Z,1.47
2019-05-25T20:47:52.067Z,1.42
2019-05-25T20:50:21.656Z,1.42
2019-05-25T20:52:51.108Z,1.65
2019-05-25T20:55:20.533Z,1.60
2019-05-25T20:57:49.828Z,1.42
2019-05-25T21:00:23.832Z,1.32
2019-05-25T21:03:05.308Z,1.37
2019-05-25T21:05:22.235Z,1.37
2019-05-25T21:07:51.723Z,1.27
2019-05-25T21:10:21.079Z,1.72
2019-05-25T21:12:50.436Z,1.50
2019-05-25T21:15:19.836Z,1.70
2019-05-25T21:17:50.115Z,2.02
2019-05-25T21:20:19.509Z,1.55
2019-05-25T21:22:48.946Z,1.62
2019-05-25T21:25:18.513Z,1.60
2019-05-25T21:27:48.020Z,1.50
2019-05-25T21:30:17.926Z,1.67
2019-05-25T21:32:47.298Z,1.70
2019-05-25T21:35:16.615Z,1.45
2019-05-25T21:37:46.032Z,1.27
2019-05-25T21:40:15.590Z,1.30
2019-05-25T21:42:44.949Z,1.60
2019-05-25T21:45:14.590Z,1.75
2019-05-25T21:47:43.940Z,1.75
2019-05-25T21:50:14.636Z,1.72
2019-05-25T21:52:44.019Z,2.25
2019-05-25T21:55:13.750Z,1.82
2019-05-25T21:57:43.145Z,1.82
2019-05-25T22:00:15.833Z,1.70
2019-05-25T22:02:45.274Z,2.10
2019-05-25T22:05:14.820Z,1.85
2019-05-25T22:07:44.170Z,2.02
2019-05-25T22:10:13.847Z,1.70
2019-05-25T22:12:43.220Z,1.72
2019-05-25T22:15:12.654Z,2.17
2019-05-25T22:17:42.434Z,1.85
2019-05-25T22:20:12.503Z,1.85
2019-05-25T22:22:41.886Z,1.80
2019-05-25T22:25:11.561Z,1.98
2019-05-25T22:27:40.958Z,1.60
2019-05-25T22:30:11.793Z,1.40
2019-05-25T22:32:41.166Z,1.70
2019-05-25T22:35:10.646Z,2.15
2019-05-25T22:37:40.031Z,2.17
2019-05-25T22:40:09.753Z,1.70
2019-05-25T22:42:39.264Z,1.82
2019-05-25T22:45:09.211Z,2.10
2019-05-25T22:47:38.551Z,2.10
2019-05-25T22:50:09.796Z,2.08
2019-05-25T22:52:39.182Z,2.40
2019-05-25T22:55:08.576Z,2.33
2019-05-25T22:57:39.096Z,2.10
2019-05-25T23:00:08.713Z,1.80
2019-05-25T23:02:38.126Z,2.00
2019-05-25T23:05:07.748Z,1.90
2019-05-25T23:07:37.105Z,2.65
2019-05-25T23:10:07.556Z,2.27
2019-05-25T23:12:36.890Z,2.30
2019-05-25T23:15:07.261Z,2.20
2019-05-25T23:17:36.640Z,2.23
2019-05-25T23:20:06.619Z,2.70
2019-05-25T23:22:35.992Z,2.00
2019-05-25T23:25:05.513Z,2.20
2019-05-25T23:27:34.895Z,2.30
2019-05-25T23:30:04.508Z,2.20
2019-05-25T23:32:33.888Z,2.23
2019-05-25T23:35:03.266Z,2.50
2019-05-25T23:37:32.655Z,2.77
2019-05-25T23:40:02.043Z,2.57
2019-05-25T23:42:31.436Z,2.70
2019-05-25T23:45:00.729Z,2.43
2019-05-25T23:47:32.163Z,2.53
2019-05-25T23:50:01.552Z,2.70
2019-05-25T23:52:30.926Z,2.70
2019-05-25T23:55:00.327Z,2.97
2019-05-25T23:57:29.699Z,2.50
2019-05-25T23:59:59.053Z,2.60
